Time,TemperatureF,DewpointF,PressureIn,WindDirection,WindDirectionDegrees,WindSpeedMPH,WindSpeedGustMPH,Humidity,HourlyPrecipIn,Conditions,Clouds,dailyrainin,SoftwareType,DateUTC
2013-03-16 00:02:00,28.0,21.0,29.78,ESE,117,1.0,4.0,74,-99.99,,,-99.99,,2013-03-16 05:02:00,
2013-03-16 00:12:00,28.0,21.0,29.78,ESE,117,1.0,4.0,74,-99.99,,,-99.99,,2013-03-16 05:12:00,
2013-03-16 00:21:00,28.0,20.0,29.79,East,95,1.0,3.0,73,-99.99,,,-99.99,,2013-03-16 05:21:00,
2013-03-16 00:32:00,28.0,20.0,29.79,East,95,1.0,3.0,73,-99.99,,,-99.99,,2013-03-16 05:32:00,
2013-03-16 00:42:00,28.0,20.0,29.79,East,95,1.0,3.0,73,-99.99,,,-99.99,,2013-03-16 05:42:00,
2013-03-16 00:52:00,27.0,20.0,29.79,NNE,24,0.0,1.0,73,-99.99,,,-99.99,,2013-03-16 05:52:00,
2013-03-16 01:02:00,27.0,20.0,29.79,NNE,24,0.0,1.0,73,-99.99,,,-99.99,,2013-03-16 06:02:00,
2013-03-16 01:12:00,27.0,20.0,29.79,NNE,24,0.0,1.0,73,-99.99,,,-99.99,,2013-03-16 06:12:00,
2013-03-16 01:22:00,27.0,19.0,29.77,NE,45,0.0,2.0,72,-99.99,,,-99.99,,2013-03-16 06:22:00,
2013-03-16 01:32:00,26.0,18.0,29.77,East,99,0.0,3.0,71,-99.99,,,-99.99,,2013-03-16 06:32:00,
2013-03-16 01:42:00,26.0,18.0,29.77,East,99,0.0,3.0,71,-99.99,,,-99.99,,2013-03-16 06:42:00,
2013-03-16 01:52:00,26.0,18.0,29.77,East,90,0.0,0.0,72,-99.99,,,-99.99,,2013-03-16 06:52:00,
2013-03-16 02:02:00,24.0,16.0,29.78,NE,45,0.0,3.0,70,-99.99,,,-99.99,,2013-03-16 07:02:00,
2013-03-16 02:12:00,24.0,16.0,29.78,NE,45,0.0,3.0,70,-99.99,,,-99.99,,2013-03-16 07:12:00,
2013-03-16 02:22:00,24.0,16.0,29.78,ENE,63,1.0,5.0,71,-99.99,,,-99.99,,2013-03-16 07:22:00,
2013-03-16 02:32:00,24.0,16.0,29.78,ENE,63,1.0,5.0,71,-99.99,,,-99.99,,2013-03-16 07:32:00,
2013-03-16 02:42:00,24.0,16.0,29.78,ENE,63,1.0,5.0,71,-99.99,,,-99.99,,2013-03-16 07:42:00,
2013-03-16 02:52:00,23.0,15.0,29.79,NE,45,1.0,3.0,70,-99.99,,,-99.99,,2013-03-16 07:52:00,
2013-03-16 03:02:00,23.0,15.0,29.79,NE,45,1.0,3.0,70,-99.99,,,-99.99,,2013-03-16 08:02:00,
2013-03-16 03:12:00,23.0,15.0,29.79,NE,45,1.0,3.0,70,-99.99,,,-99.99,,2013-03-16 08:12:00,
2013-03-16 03:23:00,22.0,13.0,29.78,NE,49,2.0,3.0,69,-99.99,,,-99.99,,2013-03-16 08:23:00,
2013-03-16 03:32:00,22.0,13.0,29.78,East,85,1.0,3.0,69,-99.99,,,-99.99,,2013-03-16 08:32:00,
2013-03-16 03:42:00,22.0,13.0,29.78,East,85,1.0,3.0,69,-99.99,,,-99.99,,2013-03-16 08:42:00,
2013-03-16 03:52:00,22.0,13.0,29.78,East,85,1.0,3.0,69,-99.99,,,-99.99,,2013-03-16 08:52:00,
2013-03-16 04:01:00,21.0,12.0,29.80,NE,45,0.0,1.0,69,-99.99,,,-99.99,,2013-03-16 09:01:00,
2013-03-16 04:11:00,21.0,12.0,29.81,NE,45,1.0,1.0,68,-99.99,,,-99.99,,2013-03-16 09:11:00,
2013-03-16 04:12:00,21.0,12.0,29.80,NE,45,0.0,1.0,69,-99.99,,,-99.99,,2013-03-16 09:12:00,
2013-03-16 04:22:00,21.0,12.0,29.80,NE,45,0.0,1.0,69,-99.99,,,-99.99,,2013-03-16 09:22:00,
2013-03-16 04:33:00,21.0,12.0,29.81,NE,45,1.0,1.0,68,-99.99,,,-99.99,,2013-03-16 09:33:00,
2013-03-16 04:42:00,21.0,12.0,29.81,NE,45,1.0,1.0,68,-99.99,,,-99.99,,2013-03-16 09:42:00,
2013-03-16 04:53:00,21.0,12.0,29.81,NE,45,1.0,1.0,68,-99.99,,,-99.99,,2013-03-16 09:53:00,
2013-03-16 05:03:00,21.0,12.0,29.81,NE,45,1.0,1.0,68,-99.99,,,-99.99,,2013-03-16 10:03:00,
2013-03-16 06:41:00,20.0,11.0,29.85,NE,45,0.0,1.0,66,-99.99,,,-99.99,,2013-03-16 11:41:00,
2013-03-16 06:53:00,20.0,11.0,29.83,NE,45,0.0,1.0,66,-99.99,,,-99.99,,2013-03-16 11:53:00,
2013-03-16 07:02:00,20.0,11.0,29.85,NE,45,0.0,1.0,66,-99.99,,,-99.99,,2013-03-16 12:02:00,
2013-03-16 07:12:00,20.0,11.0,29.85,NE,45,0.0,1.0,66,-99.99,,,-99.99,,2013-03-16 12:12:00,
2013-03-16 07:22:00,20.0,11.0,29.85,NE,45,0.0,1.0,66,-99.99,,,-99.99,,2013-03-16 12:22:00,
2013-03-16 07:32:00,20.0,11.0,29.85,NE,45,0.0,1.0,66,-99.99,,,-99.99,,2013-03-16 12:32:00,
2013-03-16 07:53:00,20.0,10.0,29.86,NE,45,0.0,1.0,65,-99.99,,,-99.99,,2013-03-16 12:53:00,
2013-03-16 08:02:00,20.0,10.0,29.86,NE,45,0.0,1.0,65,-99.99,,,-99.99,,2013-03-16 13:02:00,
2013-03-16 08:12:00,20.0,10.0,29.86,NE,45,0.0,1.0,65,-99.99,,,-99.99,,2013-03-16 13:12:00,
2013-03-16 08:22:00,21.0,11.0,29.87,NE,45,0.0,1.0,65,-99.99,,,-99.99,,2013-03-16 13:22:00,
2013-03-16 08:32:00,21.0,11.0,29.88,NE,45,0.0,1.0,65,-99.99,,,-99.99,,2013-03-16 13:32:00,
2013-03-16 08:42:00,21.0,11.0,29.88,NE,45,0.0,1.0,65,-99.99,,,-99.99,,2013-03-16 13:42:00,
2013-03-16 08:52:00,22.0,12.0,29.88,NNW,342,0.0,1.0,65,-99.99,,,-99.99,,2013-03-16 13:52:00,
2013-03-16 09:02:00,22.0,12.0,29.88,NNW,342,0.0,1.0,65,-99.99,,,-99.99,,2013-03-16 14:02:00,
2013-03-16 09:12:00,22.0,12.0,29.88,NNW,342,0.0,1.0,65,-99.99,,,-99.99,,2013-03-16 14:12:00,
2013-03-16 09:22:00,23.0,12.0,29.90,North,0,1.0,2.0,61,-99.99,,,-99.99,,2013-03-16 14:22:00,
2013-03-16 09:32:00,23.0,12.0,29.90,NW,319,0.0,1.0,63,-99.99,,,-99.99,,2013-03-16 14:32:00,
2013-03-16 09:42:00,23.0,12.0,29.90,NW,319,0.0,1.0,63,-99.99,,,-99.99,,2013-03-16 14:42:00,
2013-03-16 09:52:00,25.0,13.0,29.91,North,0,1.0,1.0,60,-99.99,,,-99.99,,2013-03-16 14:52:00,
2013-03-16 10:02:00,25.0,13.0,29.91,North,0,1.0,1.0,60,-99.99,,,-99.99,,2013-03-16 15:02:00,
2013-03-16 10:12:00,25.0,13.0,29.91,North,0,1.0,1.0,60,-99.99,,,-99.99,,2013-03-16 15:12:00,
2013-03-16 10:22:00,27.0,14.0,29.91,NE,45,1.0,1.0,57,-99.99,,,-99.99,,2013-03-16 15:22:00,
2013-03-16 10:33:00,27.0,14.0,29.91,NE,45,1.0,1.0,57,-99.99,,,-99.99,,2013-03-16 15:33:00,
2013-03-16 10:44:00,27.0,14.0,29.91,NE,45,1.0,1.0,57,-99.99,,,-99.99,,2013-03-16 15:44:00,
2013-03-16 10:53:00,32.0,18.0,29.91,NE,45,0.0,1.0,55,-99.99,,,-99.99,,2013-03-16 15:53:00,
2013-03-16 11:03:00,33.0,15.0,29.92,North,0,0.0,2.0,46,-99.99,,,-99.99,,2013-03-16 16:03:00,
2013-03-16 11:12:00,33.0,15.0,29.92,North,0,0.0,2.0,46,-99.99,,,-99.99,,2013-03-16 16:12:00,
2013-03-16 11:22:00,34.0,17.0,29.92,NNE,15,0.0,1.0,49,-99.99,,,-99.99,,2013-03-16 16:22:00,
2013-03-16 11:33:00,38.0,19.0,29.92,North,0,0.0,2.0,46,-99.99,,,-99.99,,2013-03-16 16:33:00,
2013-03-16 11:42:00,38.0,19.0,29.92,North,0,0.0,2.0,46,-99.99,,,-99.99,,2013-03-16 16:42:00,
2013-03-16 11:52:00,41.0,20.0,29.93,ENE,76,0.0,3.0,43,-99.99,,,-99.99,,2013-03-16 16:52:00,
2013-03-16 12:03:00,42.0,20.0,29.94,WNW,297,1.0,2.0,41,-99.99,,,-99.99,,2013-03-16 17:03:00,
2013-03-16 12:12:00,42.0,20.0,29.94,WNW,297,1.0,2.0,41,-99.99,,,-99.99,,2013-03-16 17:12:00,
2013-03-16 12:22:00,42.0,20.0,29.94,ENE,63,0.0,2.0,41,-99.99,,,-99.99,,2013-03-16 17:22:00,
2013-03-16 12:32:00,41.0,17.0,29.93,North,0,0.0,1.0,37,-99.99,,,-99.99,,2013-03-16 17:32:00,
2013-03-16 12:42:00,41.0,17.0,29.93,North,0,0.0,1.0,37,-99.99,,,-99.99,,2013-03-16 17:42:00,
2013-03-16 12:53:00,43.0,19.0,29.93,North,4,1.0,1.0,37,-99.99,,,-99.99,,2013-03-16 17:53:00,
2013-03-16 13:02:00,42.0,16.0,29.93,East,85,0.0,1.0,35,-99.99,,,-99.99,,2013-03-16 18:02:00,
2013-03-16 13:13:00,42.0,16.0,29.93,East,85,0.0,1.0,35,-99.99,,,-99.99,,2013-03-16 18:13:00,
2013-03-16 13:21:00,43.0,18.0,29.93,North,352,0.0,1.0,36,-99.99,,,-99.99,,2013-03-16 18:21:00,
2013-03-16 13:22:00,44.0,17.0,29.93,NE,54,0.0,1.0,34,-99.99,,,-99.99,,2013-03-16 18:22:00,
2013-03-16 13:32:00,43.0,18.0,29.93,NNW,340,2.0,3.0,36,-99.99,,,-99.99,,2013-03-16 18:32:00,
2013-03-16 13:42:00,43.0,18.0,29.93,NNW,340,2.0,3.0,36,-99.99,,,-99.99,,2013-03-16 18:42:00,
2013-03-16 13:53:00,43.0,18.0,29.93,North,352,0.0,1.0,36,-99.99,,,-99.99,,2013-03-16 18:53:00,
2013-03-16 14:02:00,43.0,18.0,29.93,North,352,0.0,1.0,36,-99.99,,,-99.99,,2013-03-16 19:02:00,
2013-03-16 14:11:00,45.0,19.0,29.92,WNW,300,2.0,6.0,35,-99.99,,,-99.99,,2013-03-16 19:11:00,
2013-03-16 14:12:00,43.0,18.0,29.93,North,352,0.0,1.0,36,-99.99,,,-99.99,,2013-03-16 19:12:00,
2013-03-16 14:33:00,45.0,19.0,29.92,WNW,300,2.0,6.0,35,-99.99,,,-99.99,,2013-03-16 19:33:00,
2013-03-16 14:42:00,45.0,19.0,29.92,WNW,300,2.0,6.0,35,-99.99,,,-99.99,,2013-03-16 19:42:00,
2013-03-16 14:53:00,45.0,19.0,29.92,WNW,300,2.0,6.0,35,-99.99,,,-99.99,,2013-03-16 19:53:00,
2013-03-16 15:02:00,45.0,19.0,29.92,WNW,300,2.0,6.0,35,-99.99,,,-99.99,,2013-03-16 20:02:00,
2013-03-16 16:23:00,37.0,16.0,29.93,West,276,6.0,8.0,41,-99.99,,,-99.99,,2013-03-16 21:23:00,
2013-03-16 16:33:00,37.0,15.0,29.93,NNW,335,3.0,7.0,40,-99.99,,,-99.99,,2013-03-16 21:33:00,
2013-03-16 16:43:00,37.0,15.0,29.93,NNW,335,3.0,7.0,40,-99.99,,,-99.99,,2013-03-16 21:43:00,
2013-03-16 16:53:00,35.0,14.0,29.92,WNW,295,3.0,6.0,42,-99.99,,,-99.99,,2013-03-16 21:53:00,
2013-03-16 17:03:00,34.0,13.0,29.92,NNW,348,3.0,5.0,42,-99.99,,,-99.99,,2013-03-16 22:03:00,
2013-03-16 17:12:00,34.0,13.0,29.92,NNW,348,3.0,5.0,42,-99.99,,,-99.99,,2013-03-16 22:12:00,
2013-03-16 17:22:00,33.0,14.0,29.92,NNW,342,1.0,6.0,45,-99.99,,,-99.99,,2013-03-16 22:22:00,
2013-03-16 17:33:00,33.0,14.0,29.92,NNW,342,1.0,6.0,45,-99.99,,,-99.99,,2013-03-16 22:33:00,
2013-03-16 17:42:00,33.0,14.0,29.92,NNW,342,1.0,6.0,45,-99.99,,,-99.99,,2013-03-16 22:42:00,
2013-03-16 17:52:00,33.0,13.0,29.91,WNW,290,2.0,6.0,43,-99.99,,,-99.99,,2013-03-16 22:52:00,
2013-03-16 18:02:00,32.0,13.0,29.91,West,276,2.0,7.0,45,-99.99,,,-99.99,,2013-03-16 23:02:00,
2013-03-16 18:13:00,32.0,13.0,29.91,West,276,2.0,7.0,45,-99.99,,,-99.99,,2013-03-16 23:13:00,
2013-03-16 18:22:00,31.0,13.0,29.91,WNW,290,4.0,8.0,46,-99.99,,,-99.99,,2013-03-16 23:22:00,
2013-03-16 18:33:00,30.0,12.0,29.91,WSW,257,0.0,5.0,47,-99.99,,,-99.99,,2013-03-16 23:33:00,
2013-03-16 18:42:00,30.0,12.0,29.91,WSW,257,0.0,5.0,47,-99.99,,,-99.99,,2013-03-16 23:42:00,
2013-03-16 18:52:00,29.0,11.0,29.90,NW,324,1.0,4.0,46,-99.99,,,-99.99,,2013-03-16 23:52:00,
2013-03-16 19:02:00,29.0,12.0,29.91,WSW,258,1.0,3.0,48,-99.99,,,-99.99,,2013-03-17 00:02:00,
2013-03-16 19:12:00,29.0,12.0,29.91,WSW,258,1.0,3.0,48,-99.99,,,-99.99,,2013-03-17 00:12:00,
2013-03-16 19:22:00,28.0,11.0,29.91,WSW,252,1.0,4.0,48,-99.99,,,-99.99,,2013-03-17 00:22:00,
2013-03-16 19:32:00,28.0,11.0,29.91,WSW,252,1.0,4.0,48,-99.99,,,-99.99,,2013-03-17 00:32:00,
2013-03-16 19:42:00,28.0,11.0,29.91,WSW,252,1.0,4.0,48,-99.99,,,-99.99,,2013-03-17 00:42:00,
2013-03-16 19:52:00,27.0,11.0,29.92,North,0,0.0,3.0,50,-99.99,,,-99.99,,2013-03-17 00:52:00,
2013-03-16 20:02:00,27.0,11.0,29.92,North,0,0.0,3.0,50,-99.99,,,-99.99,,2013-03-17 01:02:00,
2013-03-16 20:12:00,27.0,11.0,29.92,North,0,0.0,3.0,50,-99.99,,,-99.99,,2013-03-17 01:12:00,
2013-03-16 20:22:00,26.0,10.0,29.94,West,265,3.0,5.0,51,-99.99,,,-99.99,,2013-03-17 01:22:00,
2013-03-16 20:32:00,26.0,11.0,29.94,WSW,252,0.0,3.0,52,-99.99,,,-99.99,,2013-03-17 01:32:00,
2013-03-16 20:43:00,26.0,11.0,29.94,WSW,252,0.0,3.0,52,-99.99,,,-99.99,,2013-03-17 01:43:00,
2013-03-16 20:53:00,26.0,11.0,29.96,WNW,298,3.0,6.0,52,-99.99,,,-99.99,,2013-03-17 01:53:00,
2013-03-16 21:02:00,26.0,11.0,29.96,WNW,298,3.0,6.0,52,-99.99,,,-99.99,,2013-03-17 02:02:00,
2013-03-16 21:12:00,26.0,11.0,29.96,WNW,298,3.0,6.0,52,-99.99,,,-99.99,,2013-03-17 02:12:00,
2013-03-16 21:22:00,25.0,11.0,29.98,SW,220,1.0,4.0,54,-99.99,,,-99.99,,2013-03-17 02:22:00,
2013-03-16 21:33:00,25.0,11.0,29.98,SW,220,1.0,4.0,54,-99.99,,,-99.99,,2013-03-17 02:33:00,
2013-03-16 21:43:00,25.0,11.0,29.98,SW,220,1.0,4.0,54,-99.99,,,-99.99,,2013-03-17 02:43:00,
2013-03-16 21:53:00,25.0,11.0,29.99,West,276,4.0,4.0,54,-99.99,,,-99.99,,2013-03-17 02:53:00,
2013-03-16 22:02:00,25.0,11.0,29.99,West,276,4.0,4.0,54,-99.99,,,-99.99,,2013-03-17 03:02:00,
2013-03-16 22:12:00,25.0,11.0,29.99,West,276,4.0,4.0,54,-99.99,,,-99.99,,2013-03-17 03:12:00,
2013-03-16 22:22:00,25.0,11.0,29.99,SW,230,2.0,4.0,54,-99.99,,,-99.99,,2013-03-17 03:22:00,
2013-03-16 22:33:00,25.0,11.0,29.99,SW,230,2.0,4.0,54,-99.99,,,-99.99,,2013-03-17 03:33:00,
2013-03-16 22:43:00,25.0,11.0,29.99,SW,230,2.0,4.0,54,-99.99,,,-99.99,,2013-03-17 03:43:00,
2013-03-16 22:52:00,24.0,10.0,30.00,NW,315,0.0,3.0,54,-99.99,,,-99.99,,2013-03-17 03:52:00,
2013-03-16 23:03:00,24.0,10.0,29.99,North,4,0.0,3.0,54,-99.99,,,-99.99,,2013-03-17 04:03:00,
2013-03-16 23:11:00,23.0,9.0,29.99,West,277,1.0,4.0,54,-99.99,,,-99.99,,2013-03-17 04:11:00,
2013-03-16 23:12:00,24.0,10.0,29.99,North,4,0.0,3.0,54,-99.99,,,-99.99,,2013-03-17 04:12:00,
2013-03-16 23:23:00,24.0,10.0,29.99,WNW,292,0.0,4.0,54,-99.99,,,-99.99,,2013-03-17 04:23:00,
2013-03-16 23:32:00,23.0,9.0,29.99,West,277,1.0,4.0,54,-99.99,,,-99.99,,2013-03-17 04:32:00,
2013-03-16 23:42:00,23.0,9.0,29.99,West,277,1.0,4.0,54,-99.99,,,-99.99,,2013-03-17 04:42:00,
2013-03-16 23:53:00,23.0,9.0,29.99,West,277,1.0,4.0,54,-99.99,,,-99.99,,2013-03-17 04:53:00,